CST,Max TemperatureF,Mean TemperatureF,Min TemperatureF,Max Dew PointF,MeanDew PointF,Min DewpointF,Max Humidity, Mean Humidity, Min Humidity, Max Sea Level PressureIn, Mean Sea Level PressureIn, Min Sea Level PressureIn, Max VisibilityMiles, Mean VisibilityMiles, Min VisibilityMiles, Max Wind SpeedMPH, Mean Wind SpeedMPH, Max Gust SpeedMPH,PrecipitationIn, CloudCover, Events, WindDirDegrees
2013-3-1,67,51,35,21,6,-9,35,16,6,30.39,30.24,29.97,19,13,6,15,5,,0.00,1,,8
2013-3-2,69,48,27,20,3,-6,39,16,4,30.52,30.36,30.05,19,12,6,15,5,,0.00,0,,11
2013-3-3,78,54,29,29,6,-13,34,14,4,30.42,30.22,29.83,19,12,6,7,2,,0.00,0,,207
2013-3-4,87,60,33,33,10,-6,43,16,4,30.30,30.07,29.72,19,12,6,14,3,,0.00,0,,207
2013-3-5,79,59,39,27,11,1,35,15,5,30.39,30.14,29.83,14,11,6,14,2,,0.00,5,,38
2013-3-6,83,62,41,37,17,9,39,17,5,30.36,30.08,29.79,19,12,6,17,3,,0.00,6,,158
2013-3-7,81,66,51,35,25,18,33,19,11,30.28,30.01,29.75,19,13,6,22,7,,0.00,7,,176
2013-3-8,74,64,54,37,25,16,41,23,11,30.29,30.05,29.83,19,12,4,22,7,,0.00,6,,202
2013-3-9,80,64,47,36,26,10,57,28,7,30.22,29.97,29.65,19,12,6,24,9,,0.00,4,,224
2013-3-10,79,60,40,35,24,12,65,26,10,30.10,29.87,29.58,19,12,6,26,10,,0.00,0,,208
2013-3-11,70,52,35,31,17,9,51,24,11,30.25,30.03,29.76,19,12,6,12,5,,0.00,5,,14
2013-3-12,73,55,37,27,13,1,38,17,6,30.29,30.10,29.88,19,12,6,10,3,,0.00,7,,354
2013-3-13,80,60,39,37,15,3,30,16,7,30.41,30.15,29.81,19,12,6,18,4,,0.00,4,,1
2013-3-14,79,62,46,37,25,12,36,22,11,30.40,30.16,29.90,19,13,6,22,5,,0.00,7,,237
2013-3-15,73,60,47,33,24,16,46,24,11,30.32,30.07,29.77,19,13,6,8,2,,0.00,8,,346
2013-3-16,80,62,43,43,24,5,49,26,6,30.18,29.95,29.62,16,12,6,18,2,,0.00,4,,164
2013-3-17,82,66,49,42,25,12,50,23,8,30.22,29.96,29.63,14,12,6,20,8,,0.00,1,,236
2013-3-18,83,62,42,40,22,3,65,25,4,30.28,30.01,29.70,19,12,6,14,3,,0.00,0,,188
2013-3-19,91,66,41,32,13,-11,60,18,4,30.27,30.00,29.63,14,11,6,15,4,,0.00,0,,210
2013-3-20,88,64,42,36,21,12,52,19,6,30.28,29.97,29.56,19,12,6,10,3,,0.00,0,,296
2013-3-21,90,68,52,39,22,9,57,20,6,30.12,29.89,29.60,19,12,6,21,8,,0.00,0,,222
2013-3-22,86,68,50,45,22,3,49,19,5,30.13,29.87,29.56,19,13,6,22,8,,0.00,0,,194
2013-3-23,83,64,44,42,12,-13,66,19,4,30.16,29.97,29.64,19,12,6,25,9,39,0.00,1,,216
2013-3-24,84,62,41,33,17,0,56,22,5,30.21,29.94,29.56,19,12,6,24,5,,0.00,1,,176
2013-3-25,81,63,45,31,18,0,52,19,5,30.18,29.94,29.64,19,12,6,16,4,,0.00,4,,276
2013-3-26,83,68,52,40,28,18,50,25,12,30.26,30.02,29.70,14,11,6,14,3,,0.00,5,,207
2013-3-27,84,64,43,37,28,21,60,27,9,30.30,30.06,29.77,19,12,6,22,5,,0.00,4,,230
2013-3-28,86,70,54,36,26,12,51,19,7,30.32,30.03,29.73,19,12,6,20,6,,0.00,6,,218
2013-3-29,89,70,50,35,24,12,43,18,7,30.32,30.06,29.68,19,13,6,14,5,,0.00,4,,259
2013-3-30,90,68,46,38,24,14,49,21,5,30.31,30.02,29.60,19,12,6,16,2,,0.00,4,,281
2013-3-31,89,66,44,39,24,14,43,17,7,30.27,29.95,29.58,19,12,6,12,4,,0.00,6,,286